Nuliajuk — CFN5537 — position and weather

sailwx.info

Track history (hours):
 
Tides and Currents Weather Stations Pressure Air Temp Water Temp Dewpoint Dewpoint Depression Visibility Wind Speed Wind Dir Waves Ship Positions

Nuliajuk

Last reported at 2018-Aug-15 02:00 UTC. Time now 2018-Aug-15 03:00 UTC.
Position N 72°30' W 080°18'.

Length 19 m.

Type: Fishing. MMSI: 316019354.

Wind from 040 at 7 knots

Barometer 1004.6 mb
Air temperature 3.8 ° C
Dewpoint 2.0 ° C
Water temperature 3.0 ° C

Date/timePositionNaut miles runAvg speedWind from/ knotsBaromVisibWave heightAir tempDewpointWater temp
2018-Aug-15 02:00N 72°30' W 080°18'6 6.3 040 / 71004.6 3.8 2.0 3.0
2018-Aug-15 01:00N 72°24' W 080°24'1212.1 010 / 111004.6 3.7 2.4 4.2
2018-Aug-15 00:00N 72°12' W 080°30'6 6.0 010 / 71004.6 4.1 2.8 5.3
2018-Aug-14 23:00N 72°06' W 080°30'1313.2 320 / 131004.0 5.4 3.3 5.4
2018-Aug-14 22:00N 71°54' W 080°48'2 1.9 350 / 111003.6 6.2 3.7 6.6
2018-Aug-14 21:00N 71°54' W 080°54'2 1.9 060 / 131003.8 6.6 4.1 7.8
2018-Aug-14 20:00N 71°54' W 080°48'7 7.1 070 / 81004.0 5.3 3.6 5.6
2018-Aug-14 19:00N 72°00' W 080°36'0 0.0 050 / 111004.1 5.0 3.1
2018-Aug-14 18:00N 72°00' W 080°36'0 0.0 080 / 71004.3 5.0 3.2
2018-Aug-14 17:00N 72°00' W 080°36'0 0.0 070 / 111004.2 5.0 3.2
2018-Aug-14 16:00N 72°00' W 080°36'0 0.0 090 / 91004.3 4.8 3.0
2018-Aug-14 15:00N 72°00' W 080°36'0 0.0 070 / 81004.5 5.0 3.3
2018-Aug-14 14:00N 72°00' W 080°36'0 0.0 050 / 111004.7 4.6 2.9
2018-Aug-14 13:00N 72°00' W 080°36'0 0.0 070 / 111004.7 4.5 3.2
2018-Aug-14 12:00N 72°00' W 080°36'0 0.0 080 / 81004.7 4.8 3.0
2018-Aug-14 11:00N 72°00' W 080°36'0 0.0 070 / 91004.5 4.8 3.1
2018-Aug-14 10:00N 72°00' W 080°36'0 0.0 060 / 101004.2 5.1 2.9
2018-Aug-14 09:00N 72°00' W 080°36'0 0.0 070 / 81004.3 4.8 3.0
2018-Aug-14 08:00N 72°00' W 080°36'0 0.0 070 / 101004.1 5.0 3.1
2018-Aug-14 07:00N 72°00' W 080°36'0 0.0 070 / 81004.1 5.0 3.0
2018-Aug-14 06:00N 72°00' W 080°36'0 0.0 120 / 91004.0 5.3 3.2
2018-Aug-14 05:00N 72°00' W 080°36'0 0.0 110 / 41004.1 5.9 3.2
2018-Aug-14 04:00N 72°00' W 080°36'0 0.0 090 / 71004.2 5.9 3.3
2018-Aug-14 03:00N 72°00' W 080°36'0 0.0 080 / 111004.1 5.4 3.4
2018-Aug-14 02:00N 72°00' W 080°36'0 0.0 100 / 71004.2 6.0 3.4
2018-Aug-14 01:00N 72°00' W 080°36'0 0.0 100 / 61004.2 6.0 3.8
2018-Aug-14 00:00N 72°00' W 080°36'0 0.0 090 / 71004.0 6.2 3.5
2018-Aug-13 23:00N 72°00' W 080°36'0 0.0 070 / 41004.1 6.5 3.4
2018-Aug-13 22:00N 72°00' W 080°36'0 0.0 060 / 61004.0 6.3 3.6
2018-Aug-13 21:00N 72°00' W 080°36'0 0.0 110 / 21004.0 6.6 3.9
2018-Aug-13 20:00N 72°00' W 080°36'0 0.0 100 / 61004.2 5.8 3.3
2018-Aug-13 19:00N 72°00' W 080°36'0 0.0 070 / 31004.1 7.1 3.3
2018-Aug-13 18:00N 72°00' W 080°36'0 0.0 150 / 21004.1 6.8 3.5
2018-Aug-13 17:00N 72°00' W 080°36'0 0.0 100 / 41004.2 6.3 3.6
2018-Aug-13 16:00N 72°00' W 080°36'0 0.0 090 / 61004.2 5.0 3.3
2018-Aug-13 15:00N 72°00' W 080°36'0 0.0 080 / 31004.4 5.8 2.8
2018-Aug-13 14:00N 72°00' W 080°36'0 0.0 070 / 51004.4 5.8 2.7
2018-Aug-13 13:00N 72°00' W 080°36'0 0.0 080 / 71004.4 5.8 2.7
2018-Aug-13 12:00N 72°00' W 080°36'0 0.0 090 / 81004.1 5.3 2.9
2018-Aug-13 11:00N 72°00' W 080°36'0 0.0 060 / 111003.8 5.6 2.7
2018-Aug-13 09:00N 72°00' W 080°36'0 0.0 130 / 61003.5 5.6 2.7
2018-Aug-13 08:00N 72°00' W 080°36'0 0.0 100 / 11003.3 6.3 2.7
2018-Aug-13 07:00N 72°00' W 080°36'0 0.0 130 / 61003.3 5.4 2.9
2018-Aug-13 06:00N 72°00' W 080°36'0 0.0 130 / 61003.0 5.4 2.8
2018-Aug-13 05:00N 72°00' W 080°36'0 0.0 1002.9 6.4 3.1
2018-Aug-13 04:00N 72°00' W 080°36'0 0.0 140 / 51002.9 5.8 3.0
2018-Aug-13 03:00N 72°00' W 080°36'0 0.0 080 / 111002.7 5.4 3.0
2018-Aug-13 02:00N 72°00' W 080°36'0 0.0 090 / 21002.9 6.6 3.4
2018-Aug-13 01:00N 72°00' W 080°36'0 0.0 100 / 61002.9 6.0 3.4
2018-Aug-13 00:00N 72°00' W 080°36'0 0.0 070 / 81002.9 5.6 3.4
2018-Aug-12 23:00N 72°00' W 080°36'0 0.0 060 / 71003.0 5.3 3.3
2018-Aug-12 22:00N 72°00' W 080°36'0 0.0 100 / 61003.0 5.2 3.1
2018-Aug-12 21:00N 72°00' W 080°36'0 0.0 070 / 61002.8 5.3 3.4
2018-Aug-12 20:00N 72°00' W 080°36'0 0.0 090 / 101003.0 4.6 2.9
2018-Aug-12 19:00N 72°00' W 080°36'0 0.0 060 / 91002.9 4.7 3.1
2018-Aug-12 18:00N 72°00' W 080°36'0 0.0 070 / 91002.8 4.1 2.7
2018-Aug-12 17:00N 72°00' W 080°36'0 0.0 070 / 101002.9 4.1 2.8
2018-Aug-12 16:00N 72°00' W 080°36'0 0.0 090 / 101002.8 4.3 2.8
2018-Aug-12 15:00N 72°00' W 080°36'0 0.0 080 / 91002.8 4.9 3.0
2018-Aug-12 14:00N 72°00' W 080°36'0 0.0 050 / 81002.8 4.6 2.8
2018-Aug-12 13:00N 72°00' W 080°36'0 0.0 080 / 111002.6 4.2 2.3
2018-Aug-12 12:00N 72°00' W 080°36'0 0.0 060 / 91002.3 4.2 2.1
2018-Aug-12 11:00N 72°00' W 080°36'0 0.0 070 / 91002.0 4.2 2.9
2018-Aug-12 10:00N 72°00' W 080°36'0 0.0 090 / 101001.8 4.2 2.6
2018-Aug-12 09:00N 72°00' W 080°36'0 0.0 080 / 121001.8 3.7 2.3
2018-Aug-12 08:00N 72°00' W 080°36'0 0.0 090 / 61001.7 4.5 2.4
2018-Aug-12 07:00N 72°00' W 080°36'0 0.0 100 / 101001.4 3.9 2.2
2018-Aug-12 06:00N 72°00' W 080°36'0 0.0 080 / 71001.4 4.7 2.4
2018-Aug-12 05:00N 72°00' W 080°36'0 0.0 100 / 131001.2 4.3 2.2
2018-Aug-12 04:00N 72°00' W 080°36'0 0.0 1001.2 5.7 2.1
2018-Aug-12 03:00N 72°00' W 080°36'0 0.0 100 / 71001.3 5.0 2.3
2018-Aug-12 02:00N 72°00' W 080°36'0 0.0 250 / 81001.2 6.4 2.2
2018-Aug-12 01:00N 72°00' W 080°36'0 0.0 110 / 41001.0 6.4 2.4
2018-Aug-12 00:00N 72°00' W 080°36'0 0.0 290 / 31001.2 7.3 2.3
2018-Aug-11 23:00N 72°00' W 080°36'0 0.0 250 / 21001.3 7.3 2.6
2018-Aug-11 22:00N 72°00' W 080°36'0 0.0 220 / 41001.4 7.7 1.7
2018-Aug-11 21:00N 72°00' W 080°36'0 0.0 230 / 41001.6 6.9 3.5
2018-Aug-11 20:00N 72°00' W 080°36'0 0.0 060 / 21001.7 8.0 2.6
2018-Aug-11 19:00N 72°00' W 080°36'0 0.0 210 / 51001.9 7.0 2.3
2018-Aug-11 18:00N 72°00' W 080°36'0 0.0 210 / 51001.9 6.5 2.1
2018-Aug-11 17:00N 72°00' W 080°36'0 0.0 010 / 111001.9 6.3 2.2
2018-Aug-11 16:00N 72°00' W 080°36'0 0.0 340 / 61002.1 5.8 2.3
2018-Aug-11 15:00N 72°00' W 080°36'0 0.0 210 / 21002.4 5.5 2.1
2018-Aug-11 14:00N 72°00' W 080°36'0 0.0 340 / 131002.3 4.4 1.5
2018-Aug-11 13:00N 72°00' W 080°36'0 0.0 010 / 121002.3 4.7 1.3 4.8
2018-Aug-11 12:00N 72°00' W 080°36'0 0.0 120 / 21002.6 5.5 1.8 4.6
2018-Aug-11 11:00N 72°00' W 080°36'4 3.7 360 / 61002.8 5.3 1.9 4.8
2018-Aug-11 10:00N 72°00' W 080°48'2 1.9 010 / 221002.2 3.9 2.0 6.1
2018-Aug-11 09:00N 72°00' W 080°54'0 0.0 040 / 131003.1 5.2 2.5
2018-Aug-11 08:00N 72°00' W 080°54'0 0.0 320 / 81003.1 5.0 2.3
2018-Aug-11 07:00N 72°00' W 080°54'0 0.0 020 / 51003.1 5.6 2.4
2018-Aug-11 06:00N 72°00' W 080°54'0 0.0 360 / 91003.3 5.7 2.3 6.6
2018-Aug-11 05:00N 72°00' W 080°54'6 6.0 030 / 81003.6 5.7 2.6 6.6
2018-Aug-11 04:00N 72°06' W 080°54'0 0.0 090 / 111003.3 5.8 2.8 6.6
2018-Aug-11 03:00N 72°06' W 080°54'0 0.0 030 / 141002.2 6.2 2.9
2018-Aug-11 02:00N 72°06' W 080°54'0 0.0 030 / 191002.1 6.3 2.8
2018-Aug-11 01:00N 72°06' W 080°54'0 0.0 020 / 171002.7 6.9 2.8
2018-Aug-11 00:00N 72°06' W 080°54'0 0.0 030 / 201002.8 6.5 3.0
2018-Aug-10 23:00N 72°06' W 080°54'0 0.0 030 / 191002.8 6.9 2.8
2018-Aug-10 22:00N 72°06' W 080°54'0 0.0 020 / 221002.9 6.1 2.9
2018-Aug-10 21:00N 72°06' W 080°54'0 0.0 050 / 141003.0 6.2 3.0 6.5
2018-Aug-10 20:00N 72°06' W 080°54'0 0.0 080 / 81003.0 6.7 2.8 6.2
2018-Aug-10 19:00N 72°06' W 080°54'0 0.0 020 / 121002.9 6.4 2.4 6.4
2018-Aug-10 18:00N 72°06' W 080°54'7 7.0 030 / 211002.1 5.6 2.4 5.4
2018-Aug-10 17:00N 72°00' W 080°42'2 1.9 040 / 41002.8 5.4 2.0 4.9
2018-Aug-10 16:00N 72°00' W 080°36'0 0.0 020 / 161002.7 4.9 1.9
2018-Aug-10 15:00N 72°00' W 080°36'0 0.0 360 / 181002.8 4.7 1.9
2018-Aug-10 14:00N 72°00' W 080°36'0 0.0 360 / 131003.4 4.5 1.9
2018-Aug-10 13:00N 72°00' W 080°36'0 0.0 010 / 121003.7 4.5 2.0
2018-Aug-10 12:00N 72°00' W 080°36'0 0.0 020 / 111004.2 4.1 1.8
2018-Aug-10 11:00N 72°00' W 080°36'0 0.0 350 / 101004.3 4.0 1.9
2018-Aug-10 10:00N 72°00' W 080°36'0 0.0 010 / 131004.2 4.0 2.1
2018-Aug-10 09:00N 72°00' W 080°36'0 0.0 360 / 51003.9 5.0 2.4
2018-Aug-10 08:00N 72°00' W 080°36'0 0.0 180 / 61003.8 5.6 2.9
2018-Aug-10 07:00N 72°00' W 080°36'0 0.0 200 / 51003.9 5.2 3.1
2018-Aug-10 06:00N 72°00' W 080°36'0 0.0 190 / 81003.8 5.3 3.1
2018-Aug-10 05:00N 72°00' W 080°36'0 0.0 160 / 71004.0 5.0 3.1
2018-Aug-10 04:00N 72°00' W 080°36'0 0.0 180 / 71004.0 6.0 3.3
2018-Aug-10 03:00N 72°00' W 080°36'0 0.0 010 / 11003.9 6.9 3.1
2018-Aug-10 02:00N 72°00' W 080°36'0 0.0 040 / 91004.1 7.3 2.7
2018-Aug-10 01:00N 72°00' W 080°36'0 0.0 070 / 61004.2 6.6 3.3
2018-Aug-10 00:00N 72°00' W 080°36'0 0.0 070 / 101004.3 6.7 2.8
2018-Aug-09 23:00N 72°00' W 080°36'0 0.0 050 / 71004.5 6.8 3.1
2018-Aug-09 22:00N 72°00' W 080°36'0 0.0 300 / 21004.4 7.4 3.1
2018-Aug-09 21:00N 72°00' W 080°36'0 0.0 230 / 31004.4 7.2 3.4
2018-Aug-09 20:00N 72°00' W 080°36'0 0.0 210 / 11004.3 7.7 3.2
2018-Aug-09 19:00N 72°00' W 080°36'0 0.0 170 / 21004.3 6.9 3.5
2018-Aug-09 18:00N 72°00' W 080°36'0 0.0 210 / 21004.4 6.6 3.7
2018-Aug-09 16:00N 72°00' W 080°36'0 0.0 190 / 61004.3 5.8 3.3
2018-Aug-09 15:00N 72°00' W 080°36'0 0.0 210 / 21004.3 6.1 3.9
2018-Aug-09 14:00N 72°00' W 080°36'0 0.0 210 / 101004.3 5.5 3.5
2018-Aug-09 13:00N 72°00' W 080°36'0 0.0 210 / 61004.5 5.7 3.4
2018-Aug-09 12:00N 72°00' W 080°36'0 0.0 200 / 61004.4 5.7 3.6
2018-Aug-09 11:00N 72°00' W 080°36'0 0.0 090 / 41004.3 5.7 3.5
2018-Aug-09 10:00N 72°00' W 080°36'0 0.0 170 / 21004.3 5.7 4.3
2018-Aug-09 09:00N 72°00' W 080°36'0 0.0 160 / 31004.3 5.7 4.3
2018-Aug-09 08:00N 72°00' W 080°36'0 0.0 300 / 71004.2 5.5 3.9
2018-Aug-09 07:00N 72°00' W 080°36'0 0.0 130 / 61003.9 5.9 4.7
2018-Aug-09 06:00N 72°00' W 080°36'0 0.0 210 / 31003.9 6.1 5.3
2018-Aug-09 05:00N 72°00' W 080°36'0 0.0 080 / 41003.7 5.7 4.8
2018-Aug-09 04:00N 72°00' W 080°36'0 0.0 060 / 51003.5 5.7 4.7
2018-Aug-09 03:00N 72°00' W 080°36'0 0.0 050 / 41003.3 5.5 4.7
2018-Aug-09 02:00N 72°00' W 080°36'0 0.0 040 / 61003.3 5.7 4.5
2018-Aug-09 01:00N 72°00' W 080°36'0 0.0 050 / 61003.4 5.9 4.9
2018-Aug-09 00:00N 72°00' W 080°36'0 0.0 010 / 41003.4 6.2 5.1
2018-Aug-08 23:00N 72°00' W 080°36'0 0.0 070 / 31003.4 6.5 5.1
2018-Aug-08 22:00N 72°00' W 080°36'0 0.0 1003.3 6.6 4.8
2018-Aug-08 21:00N 72°00' W 080°36'0 0.0 030 / 11003.1 6.2 5.0
2018-Aug-08 20:00N 72°00' W 080°36'0 0.0 050 / 21003.1 6.0 4.8
2018-Aug-08 19:00N 72°00' W 080°36'0 0.0 010 / 21003.1 6.2 5.2
2018-Aug-08 18:00N 72°00' W 080°36'0 0.0 080 / 11002.9 6.2 5.1
2018-Aug-08 17:00N 72°00' W 080°36'0 0.0 060 / 11002.8 5.9 4.7
2018-Aug-08 16:00N 72°00' W 080°36'0 0.0 060 / 21002.7 5.4 4.3
2018-Aug-08 15:00N 72°00' W 080°36'0 0.0 050 / 31002.8 5.5 4.1
2018-Aug-08 14:00N 72°00' W 080°36'0 0.0 050 / 21002.8 5.6 3.7
2018-Aug-08 13:00N 72°00' W 080°36'0 0.0 050 / 41002.7 5.1 3.9
2018-Aug-08 12:00N 72°00' W 080°36'0 0.0 030 / 51002.9 5.0 3.7
2018-Aug-08 11:00N 72°00' W 080°36'0 0.0 030 / 61002.8 4.9 3.5
2018-Aug-08 10:00N 72°00' W 080°36'0 0.0 030 / 81002.6 5.0 3.5
2018-Aug-08 09:00N 72°00' W 080°36'0 0.0 030 / 71002.7 5.0 3.5
2018-Aug-08 08:00N 72°00' W 080°36'0 0.0 040 / 81002.6 5.2 3.7
2018-Aug-08 07:00N 72°00' W 080°36'0 0.0 030 / 61002.6 5.4 3.6
2018-Aug-08 06:00N 72°00' W 080°36'0 0.0 040 / 81002.5 5.5 3.8
2018-Aug-08 05:00N 72°00' W 080°36'0 0.0 040 / 51002.6 6.2 4.0
2018-Aug-08 04:00N 72°00' W 080°36'0 0.0 220 / 31002.5 8.6 4.2
2018-Aug-08 03:00N 72°00' W 080°36'0 0.0 210 / 21002.4 7.7 4.2
2018-Aug-08 02:00N 72°00' W 080°36'0 0.0 060 / 21002.5 6.9 3.8
2018-Aug-08 01:00N 72°00' W 080°36'0 0.0 1002.7 7.5 4.9
2018-Aug-08 00:00N 72°00' W 080°36'0 0.0 1002.7 8.1 4.1
2018-Aug-07 23:00N 72°00' W 080°36'0 0.0 140 / 11002.7 7.4 5.2
2018-Aug-07 22:00N 72°00' W 080°36'0 0.0 230 / 11002.9 8.2 4.9
2018-Aug-07 21:00N 72°00' W 080°36'0 0.0 030 / 21003.0 7.0 4.3
2018-Aug-07 20:00N 72°00' W 080°36'0 0.0 060 / 21003.2 6.6 4.7
2018-Aug-07 19:00N 72°00' W 080°36'0 0.0 030 / 61003.2 6.2 4.6
2018-Aug-07 18:00N 72°00' W 080°36'0 0.0 030 / 61003.4 6.1 4.5
2018-Aug-07 17:00N 72°00' W 080°36'0 0.0 320 / 41003.3 6.3 4.0
2018-Aug-07 16:00N 72°00' W 080°36'0 0.0 220 / 61003.3 6.8 4.1
2018-Aug-07 15:00N 72°00' W 080°36'0 0.0 250 / 71003.3 6.3 4.4
2018-Aug-07 14:00N 72°00' W 080°36'0 0.0 220 / 61003.3 6.9 3.3
2018-Aug-07 13:00N 72°00' W 080°36'0 0.0 210 / 101003.3 6.6 3.2
2018-Aug-07 12:00N 72°00' W 080°36'0 0.0 180 / 101003.3 6.3 2.8
2018-Aug-07 11:00N 72°00' W 080°36'0 0.0 200 / 111003.0 6.3 2.8
2018-Aug-07 10:00N 72°00' W 080°36'0 0.0 180 / 131002.9 6.2 2.8
2018-Aug-07 09:00N 72°00' W 080°36'0 0.0 190 / 111002.5 6.3 3.0
2018-Aug-07 08:00N 72°00' W 080°36'0 0.0 190 / 111002.2 6.2 3.3
2018-Aug-07 07:00N 72°00' W 080°36'0 0.0 190 / 131001.6 6.6 3.3 5.0
2018-Aug-07 06:00N 72°00' W 080°36'0 0.0 190 / 141001.0 6.8 3.7 5.0
2018-Aug-07 05:00N 72°00' W 080°36'6 6.3 200 / 20999.8 7.3 3.7 5.1
2018-Aug-07 04:00N 72°06' W 080°30'6 6.0 210 / 121000.0 7.7 3.8 4.5
2018-Aug-07 03:00N 72°12' W 080°30'6 6.0 210 / 14999.3 7.2 3.0 3.6
2018-Aug-07 02:00N 72°18' W 080°30'7 7.0 230 / 11998.4 5.6 3.0 2.2
2018-Aug-07 01:00N 72°24' W 080°18'6 6.3 220 / 11997.9 4.7 2.2 1.6
2018-Aug-07 00:00N 72°30' W 080°12'8 8.1 190 / 8997.0 3.6 1.4 1.5
2018-Aug-06 23:00N 72°36' W 079°54'7 7.2 190 / 10996.8 4.3 1.2 1.1
2018-Aug-06 22:00N 72°36' W 079°30'1110.8 120 / 6996.7 2.9 1.1 1.6
2018-Aug-06 21:00N 72°42' W 079°00'7 7.1 080 / 3996.1 4.0 1.5 2.3
2018-Aug-06 20:00N 72°42' W 078°36'9 8.9 290 / 1995.4 4.2 2.0 1.3
2018-Aug-06 19:00N 72°42' W 078°06'4 3.6 170 / 3994.7 4.7 1.9 2.3
2018-Aug-06 18:00N 72°42' W 077°54'0 0.0 220 / 4994.0 4.2 2.8 3.2
2018-Aug-06 17:00N 72°42' W 077°54'0 0.0 050 / 1993.3 5.5 3.5 2.9
2018-Aug-06 16:00N 72°42' W 077°54'0 0.0 300 / 3992.8 3.1 2.3 2.8
2018-Aug-06 15:00N 72°42' W 077°54'9 9.3 070 / 4992.3 1.3 1.0 0.3
2018-Aug-06 14:00N 72°48' W 077°30'9 8.9 110 / 10992.2 1.5 1.2 0.1
2018-Aug-06 13:00N 72°48' W 077°00'7 7.1 090 / 9992.2 1.7 1.6 0.6
2018-Aug-06 12:00N 72°48' W 076°36'9 8.9 070 / 7992.4 1.4 1.2 0.6
2018-Aug-06 11:00N 72°48' W 076°06'9 9.3 270 / 2992.4 1.4 1.2 1.4
2018-Aug-06 10:00N 72°42' W 075°42'7 7.1 130 / 1992.6 1.1 0.9 0.9
2018-Aug-06 09:00N 72°42' W 075°18'7 7.1 150 / 3993.2 1.5 1.3 2.0
2018-Aug-06 08:00N 72°42' W 074°54'9 8.9 110 / 4993.2 1.3 1.1 1.4
2018-Aug-06 07:00N 72°42' W 074°24'7 7.1 120 / 5993.7 1.6 1.3 1.4
2018-Aug-06 06:00N 72°42' W 074°00'7 7.1 130 / 11994.0 1.5 1.2 1.4
2018-Aug-06 05:00N 72°42' W 073°36'9 9.3 130 / 11994.7 1.9 1.3 2.0
2018-Aug-06 04:00N 72°36' W 073°12'7 7.2 130 / 12995.1 2.1 1.3 1.7
2018-Aug-06 03:00N 72°36' W 072°48'7 7.2 130 / 17995.6 2.3 1.4 2.0
2018-Aug-06 02:00N 72°36' W 072°24'9 9.0 130 / 20996.3 2.5 1.5 1.7
2018-Aug-06 01:00N 72°36' W 071°54'7 7.2 130 / 20996.9 2.9 1.8 1.8
2018-Aug-06 00:00N 72°36' W 071°30'9 9.4 130 / 23997.5 3.0 2.0 3.9
2018-Aug-05 23:00N 72°30' W 071°06'5 5.4 130 / 24998.3 3.0 1.8 3.8
2018-Aug-05 22:00N 72°30' W 070°48'7 7.2 130 / 25998.9 3.0 1.9 3.3
2018-Aug-05 21:00N 72°30' W 070°24'1110.9 130 / 27999.9 3.0 1.8 3.9
2018-Aug-05 20:00N 72°24' W 069°54'5 5.4 130 / 251001.4 3.0 2.0 3.8
2018-Aug-05 19:00N 72°24' W 069°36'7 7.3 130 / 231002.6 2.8 1.8 3.9
2018-Aug-05 18:00N 72°24' W 069°12'7 7.3 130 / 261003.6 2.5 1.7 3.7
2018-Aug-05 17:00N 72°24' W 068°48'7 7.0 130 / 251004.6 2.6 1.9 4.3
2018-Aug-05 16:00N 72°18' W 068°36'7 7.3 140 / 251005.3 2.1 1.7 4.0
2018-Aug-05 15:00N 72°18' W 068°12'7 7.3 130 / 241006.4 2.3 1.9 3.9
2018-Aug-05 14:00N 72°18' W 067°48'9 9.5 130 / 231007.4 3.1 1.7 4.0
2018-Aug-05 13:00N 72°12' W 067°24'7 7.3 130 / 171008.3 3.1 1.0 2.4
2018-Aug-05 12:00N 72°12' W 067°00'6 5.5 140 / 181008.8 3.3 1.0 2.5
2018-Aug-05 11:00N 72°12' W 066°42'9 9.5 150 / 161009.2 2.9 1.1 2.2
2018-Aug-05 10:00N 72°06' W 066°18'7 7.4 150 / 161009.4 2.8 1.2 2.3
2018-Aug-05 09:00N 72°06' W 065°54'7 7.4 150 / 151009.6 2.9 1.4 2.6
2018-Aug-05 08:00N 72°06' W 065°30'10 9.5 150 / 151009.8 2.7 1.4 3.0
2018-Aug-05 07:00N 72°00' W 065°06'10 9.6 150 / 141010.0 2.7 1.4 2.7
2018-Aug-05 06:00N 71°54' W 064°42'7 7.5 160 / 131010.1 2.6 1.5 3.0
2018-Aug-05 05:00N 71°54' W 064°18'7 7.5 160 / 131010.2 1.5 1.1 2.6
2018-Aug-05 04:00N 71°54' W 063°54'7 7.5 160 / 131010.3 0.4 0.3 2.5
2018-Aug-05 03:00N 71°54' W 063°30'10 9.6 160 / 121009.8 -0.4-0.6 2.2
2018-Aug-05 02:00N 71°48' W 063°06'   180 / 91009.5 -0.8-1.0 1.1
Track history (hours):
 
Tides and Currents Weather Stations Pressure Air Temp Water Temp Dewpoint Dewpoint Depression Visibility Wind Speed Wind Dir Waves Ship Positions

Nuliajuk

Last reported at 2018-Aug-15 02:00 UTC. Time now 2018-Aug-15 03:00 UTC.
Position N 72°30' W 080°18'.

Length 19 m.

Type: Fishing. MMSI: 316019354.

Wind from 040 at 7 knots

Barometer 1004.6 mb
Air temperature 3.8 ° C
Dewpoint 2.0 ° C
Water temperature 3.0 ° C

Date/timePositionNaut miles runAvg speedWind from/ knotsBaromVisibWave heightAir tempDewpointWater temp
2018-Aug-15 02:00N 72°30' W 080°18'6 6.3 040 / 71004.6 3.8 2.0 3.0
2018-Aug-15 01:00N 72°24' W 080°24'1212.1 010 / 111004.6 3.7 2.4 4.2
2018-Aug-15 00:00N 72°12' W 080°30'6 6.0 010 / 71004.6 4.1 2.8 5.3
2018-Aug-14 23:00N 72°06' W 080°30'1313.2 320 / 131004.0 5.4 3.3 5.4
2018-Aug-14 22:00N 71°54' W 080°48'2 1.9 350 / 111003.6 6.2 3.7 6.6
2018-Aug-14 21:00N 71°54' W 080°54'2 1.9 060 / 131003.8 6.6 4.1 7.8
2018-Aug-14 20:00N 71°54' W 080°48'7 7.1 070 / 81004.0 5.3 3.6 5.6
2018-Aug-14 19:00N 72°00' W 080°36'0 0.0 050 / 111004.1 5.0 3.1
2018-Aug-14 18:00N 72°00' W 080°36'0 0.0 080 / 71004.3 5.0 3.2
2018-Aug-14 17:00N 72°00' W 080°36'0 0.0 070 / 111004.2 5.0 3.2
2018-Aug-14 16:00N 72°00' W 080°36'0 0.0 090 / 91004.3 4.8 3.0
2018-Aug-14 15:00N 72°00' W 080°36'0 0.0 070 / 81004.5 5.0 3.3
2018-Aug-14 14:00N 72°00' W 080°36'0 0.0 050 / 111004.7 4.6 2.9
2018-Aug-14 13:00N 72°00' W 080°36'0 0.0 070 / 111004.7 4.5 3.2
2018-Aug-14 12:00N 72°00' W 080°36'0 0.0 080 / 81004.7 4.8 3.0
2018-Aug-14 11:00N 72°00' W 080°36'0 0.0 070 / 91004.5 4.8 3.1
2018-Aug-14 10:00N 72°00' W 080°36'0 0.0 060 / 101004.2 5.1 2.9
2018-Aug-14 09:00N 72°00' W 080°36'0 0.0 070 / 81004.3 4.8 3.0
2018-Aug-14 08:00N 72°00' W 080°36'0 0.0 070 / 101004.1 5.0 3.1
2018-Aug-14 07:00N 72°00' W 080°36'0 0.0 070 / 81004.1 5.0 3.0
2018-Aug-14 06:00N 72°00' W 080°36'0 0.0 120 / 91004.0 5.3 3.2
2018-Aug-14 05:00N 72°00' W 080°36'0 0.0 110 / 41004.1 5.9 3.2
2018-Aug-14 04:00N 72°00' W 080°36'0 0.0 090 / 71004.2 5.9 3.3
2018-Aug-14 03:00N 72°00' W 080°36'0 0.0 080 / 111004.1 5.4 3.4
2018-Aug-14 02:00N 72°00' W 080°36'0 0.0 100 / 71004.2 6.0 3.4
2018-Aug-14 01:00N 72°00' W 080°36'0 0.0 100 / 61004.2 6.0 3.8
2018-Aug-14 00:00N 72°00' W 080°36'0 0.0 090 / 71004.0 6.2 3.5
2018-Aug-13 23:00N 72°00' W 080°36'0 0.0 070 / 41004.1 6.5 3.4
2018-Aug-13 22:00N 72°00' W 080°36'0 0.0 060 / 61004.0 6.3 3.6
2018-Aug-13 21:00N 72°00' W 080°36'0 0.0 110 / 21004.0 6.6 3.9
2018-Aug-13 20:00N 72°00' W 080°36'0 0.0 100 / 61004.2 5.8 3.3
2018-Aug-13 19:00N 72°00' W 080°36'0 0.0 070 / 31004.1 7.1 3.3
2018-Aug-13 18:00N 72°00' W 080°36'0 0.0 150 / 21004.1 6.8 3.5
2018-Aug-13 17:00N 72°00' W 080°36'0 0.0 100 / 41004.2 6.3 3.6
2018-Aug-13 16:00N 72°00' W 080°36'0 0.0 090 / 61004.2 5.0 3.3
2018-Aug-13 15:00N 72°00' W 080°36'0 0.0 080 / 31004.4 5.8 2.8
2018-Aug-13 14:00N 72°00' W 080°36'0 0.0 070 / 51004.4 5.8 2.7
2018-Aug-13 13:00N 72°00' W 080°36'0 0.0 080 / 71004.4 5.8 2.7
2018-Aug-13 12:00N 72°00' W 080°36'0 0.0 090 / 81004.1 5.3 2.9
2018-Aug-13 11:00N 72°00' W 080°36'0 0.0 060 / 111003.8 5.6 2.7
2018-Aug-13 09:00N 72°00' W 080°36'0 0.0 130 / 61003.5 5.6 2.7
2018-Aug-13 08:00N 72°00' W 080°36'0 0.0 100 / 11003.3 6.3 2.7
2018-Aug-13 07:00N 72°00' W 080°36'0 0.0 130 / 61003.3 5.4 2.9
2018-Aug-13 06:00N 72°00' W 080°36'0 0.0 130 / 61003.0 5.4 2.8
2018-Aug-13 05:00N 72°00' W 080°36'0 0.0 1002.9 6.4 3.1
2018-Aug-13 04:00N 72°00' W 080°36'0 0.0 140 / 51002.9 5.8 3.0
2018-Aug-13 03:00N 72°00' W 080°36'0 0.0 080 / 111002.7 5.4 3.0
2018-Aug-13 02:00N 72°00' W 080°36'0 0.0 090 / 21002.9 6.6 3.4
2018-Aug-13 01:00N 72°00' W 080°36'0 0.0 100 / 61002.9 6.0 3.4
2018-Aug-13 00:00N 72°00' W 080°36'0 0.0 070 / 81002.9 5.6 3.4
2018-Aug-12 23:00N 72°00' W 080°36'0 0.0 060 / 71003.0 5.3 3.3
2018-Aug-12 22:00N 72°00' W 080°36'0 0.0 100 / 61003.0 5.2 3.1
2018-Aug-12 21:00N 72°00' W 080°36'0 0.0 070 / 61002.8 5.3 3.4
2018-Aug-12 20:00N 72°00' W 080°36'0 0.0 090 / 101003.0 4.6 2.9
2018-Aug-12 19:00N 72°00' W 080°36'0 0.0 060 / 91002.9 4.7 3.1
2018-Aug-12 18:00N 72°00' W 080°36'0 0.0 070 / 91002.8 4.1 2.7
2018-Aug-12 17:00N 72°00' W 080°36'0 0.0 070 / 101002.9 4.1 2.8
2018-Aug-12 16:00N 72°00' W 080°36'0 0.0 090 / 101002.8 4.3 2.8
2018-Aug-12 15:00N 72°00' W 080°36'0 0.0 080 / 91002.8 4.9 3.0
2018-Aug-12 14:00N 72°00' W 080°36'0 0.0 050 / 81002.8 4.6 2.8
2018-Aug-12 13:00N 72°00' W 080°36'0 0.0 080 / 111002.6 4.2 2.3
2018-Aug-12 12:00N 72°00' W 080°36'0 0.0 060 / 91002.3 4.2 2.1
2018-Aug-12 11:00N 72°00' W 080°36'0 0.0 070 / 91002.0 4.2 2.9
2018-Aug-12 10:00N 72°00' W 080°36'0 0.0 090 / 101001.8 4.2 2.6
2018-Aug-12 09:00N 72°00' W 080°36'0 0.0 080 / 121001.8 3.7 2.3
2018-Aug-12 08:00N 72°00' W 080°36'0 0.0 090 / 61001.7 4.5 2.4
2018-Aug-12 07:00N 72°00' W 080°36'0 0.0 100 / 101001.4 3.9 2.2
2018-Aug-12 06:00N 72°00' W 080°36'0 0.0 080 / 71001.4 4.7 2.4
2018-Aug-12 05:00N 72°00' W 080°36'0 0.0 100 / 131001.2 4.3 2.2
2018-Aug-12 04:00N 72°00' W 080°36'0 0.0 1001.2 5.7 2.1
2018-Aug-12 03:00N 72°00' W 080°36'0 0.0 100 / 71001.3 5.0 2.3
2018-Aug-12 02:00N 72°00' W 080°36'0 0.0 250 / 81001.2 6.4 2.2
2018-Aug-12 01:00N 72°00' W 080°36'0 0.0 110 / 41001.0 6.4 2.4
2018-Aug-12 00:00N 72°00' W 080°36'0 0.0 290 / 31001.2 7.3 2.3
2018-Aug-11 23:00N 72°00' W 080°36'0 0.0 250 / 21001.3 7.3 2.6
2018-Aug-11 22:00N 72°00' W 080°36'0 0.0 220 / 41001.4 7.7 1.7
2018-Aug-11 21:00N 72°00' W 080°36'0 0.0 230 / 41001.6 6.9 3.5
2018-Aug-11 20:00N 72°00' W 080°36'0 0.0 060 / 21001.7 8.0 2.6
2018-Aug-11 19:00N 72°00' W 080°36'0 0.0 210 / 51001.9 7.0 2.3
2018-Aug-11 18:00N 72°00' W 080°36'0 0.0 210 / 51001.9 6.5 2.1
2018-Aug-11 17:00N 72°00' W 080°36'0 0.0 010 / 111001.9 6.3 2.2
2018-Aug-11 16:00N 72°00' W 080°36'0 0.0 340 / 61002.1 5.8 2.3
2018-Aug-11 15:00N 72°00' W 080°36'0 0.0 210 / 21002.4 5.5 2.1
2018-Aug-11 14:00N 72°00' W 080°36'0 0.0 340 / 131002.3 4.4 1.5
2018-Aug-11 13:00N 72°00' W 080°36'0 0.0 010 / 121002.3 4.7 1.3 4.8
2018-Aug-11 12:00N 72°00' W 080°36'0 0.0 120 / 21002.6 5.5 1.8 4.6
2018-Aug-11 11:00N 72°00' W 080°36'4 3.7 360 / 61002.8 5.3 1.9 4.8
2018-Aug-11 10:00N 72°00' W 080°48'2 1.9 010 / 221002.2 3.9 2.0 6.1
2018-Aug-11 09:00N 72°00' W 080°54'0 0.0 040 / 131003.1 5.2 2.5
2018-Aug-11 08:00N 72°00' W 080°54'0 0.0 320 / 81003.1 5.0 2.3
2018-Aug-11 07:00N 72°00' W 080°54'0 0.0 020 / 51003.1 5.6 2.4
2018-Aug-11 06:00N 72°00' W 080°54'0 0.0 360 / 91003.3 5.7 2.3 6.6
2018-Aug-11 05:00N 72°00' W 080°54'6 6.0 030 / 81003.6 5.7 2.6 6.6
2018-Aug-11 04:00N 72°06' W 080°54'0 0.0 090 / 111003.3 5.8 2.8 6.6
2018-Aug-11 03:00N 72°06' W 080°54'0 0.0 030 / 141002.2 6.2 2.9
2018-Aug-11 02:00N 72°06' W 080°54'0 0.0 030 / 191002.1 6.3 2.8
2018-Aug-11 01:00N 72°06' W 080°54'0 0.0 020 / 171002.7 6.9 2.8
2018-Aug-11 00:00N 72°06' W 080°54'0 0.0 030 / 201002.8 6.5 3.0
2018-Aug-10 23:00N 72°06' W 080°54'0 0.0 030 / 191002.8 6.9 2.8
2018-Aug-10 22:00N 72°06' W 080°54'0 0.0 020 / 221002.9 6.1 2.9
2018-Aug-10 21:00N 72°06' W 080°54'0 0.0 050 / 141003.0 6.2 3.0 6.5
2018-Aug-10 20:00N 72°06' W 080°54'0 0.0 080 / 81003.0 6.7 2.8 6.2
2018-Aug-10 19:00N 72°06' W 080°54'0 0.0 020 / 121002.9 6.4 2.4 6.4
2018-Aug-10 18:00N 72°06' W 080°54'7 7.0 030 / 211002.1 5.6 2.4 5.4
2018-Aug-10 17:00N 72°00' W 080°42'2 1.9 040 / 41002.8 5.4 2.0 4.9
2018-Aug-10 16:00N 72°00' W 080°36'0 0.0 020 / 161002.7 4.9 1.9
2018-Aug-10 15:00N 72°00' W 080°36'0 0.0 360 / 181002.8 4.7 1.9
2018-Aug-10 14:00N 72°00' W 080°36'0 0.0 360 / 131003.4 4.5 1.9
2018-Aug-10 13:00N 72°00' W 080°36'0 0.0 010 / 121003.7 4.5 2.0
2018-Aug-10 12:00N 72°00' W 080°36'0 0.0 020 / 111004.2 4.1 1.8
2018-Aug-10 11:00N 72°00' W 080°36'0 0.0 350 / 101004.3 4.0 1.9
2018-Aug-10 10:00N 72°00' W 080°36'0 0.0 010 / 131004.2 4.0 2.1
2018-Aug-10 09:00N 72°00' W 080°36'0 0.0 360 / 51003.9 5.0 2.4
2018-Aug-10 08:00N 72°00' W 080°36'0 0.0 180 / 61003.8 5.6 2.9
2018-Aug-10 07:00N 72°00' W 080°36'0 0.0 200 / 51003.9 5.2 3.1
2018-Aug-10 06:00N 72°00' W 080°36'0 0.0 190 / 81003.8 5.3 3.1
2018-Aug-10 05:00N 72°00' W 080°36'0 0.0 160 / 71004.0 5.0 3.1
2018-Aug-10 04:00N 72°00' W 080°36'0 0.0 180 / 71004.0 6.0 3.3
2018-Aug-10 03:00N 72°00' W 080°36'0 0.0 010 / 11003.9 6.9 3.1
2018-Aug-10 02:00N 72°00' W 080°36'0 0.0 040 / 91004.1 7.3 2.7
2018-Aug-10 01:00N 72°00' W 080°36'0 0.0 070 / 61004.2 6.6 3.3
2018-Aug-10 00:00N 72°00' W 080°36'0 0.0 070 / 101004.3 6.7 2.8
2018-Aug-09 23:00N 72°00' W 080°36'0 0.0 050 / 71004.5 6.8 3.1
2018-Aug-09 22:00N 72°00' W 080°36'0 0.0 300 / 21004.4 7.4 3.1
2018-Aug-09 21:00N 72°00' W 080°36'0 0.0 230 / 31004.4 7.2 3.4
2018-Aug-09 20:00N 72°00' W 080°36'0 0.0 210 / 11004.3 7.7 3.2
2018-Aug-09 19:00N 72°00' W 080°36'0 0.0 170 / 21004.3 6.9 3.5
2018-Aug-09 18:00N 72°00' W 080°36'0 0.0 210 / 21004.4 6.6 3.7
2018-Aug-09 16:00N 72°00' W 080°36'0 0.0 190 / 61004.3 5.8 3.3
2018-Aug-09 15:00N 72°00' W 080°36'0 0.0 210 / 21004.3 6.1 3.9
2018-Aug-09 14:00N 72°00' W 080°36'0 0.0 210 / 101004.3 5.5 3.5
2018-Aug-09 13:00N 72°00' W 080°36'0 0.0 210 / 61004.5 5.7 3.4
2018-Aug-09 12:00N 72°00' W 080°36'0 0.0 200 / 61004.4 5.7 3.6
2018-Aug-09 11:00N 72°00' W 080°36'0 0.0 090 / 41004.3 5.7 3.5
2018-Aug-09 10:00N 72°00' W 080°36'0 0.0 170 / 21004.3 5.7 4.3
2018-Aug-09 09:00N 72°00' W 080°36'0 0.0 160 / 31004.3 5.7 4.3
2018-Aug-09 08:00N 72°00' W 080°36'0 0.0 300 / 71004.2 5.5 3.9
2018-Aug-09 07:00N 72°00' W 080°36'0 0.0 130 / 61003.9 5.9 4.7
2018-Aug-09 06:00N 72°00' W 080°36'0 0.0 210 / 31003.9 6.1 5.3
2018-Aug-09 05:00N 72°00' W 080°36'0 0.0 080 / 41003.7 5.7 4.8
2018-Aug-09 04:00N 72°00' W 080°36'0 0.0 060 / 51003.5 5.7 4.7
2018-Aug-09 03:00N 72°00' W 080°36'0 0.0 050 / 41003.3 5.5 4.7
2018-Aug-09 02:00N 72°00' W 080°36'0 0.0 040 / 61003.3 5.7 4.5
2018-Aug-09 01:00N 72°00' W 080°36'0 0.0 050 / 61003.4 5.9 4.9
2018-Aug-09 00:00N 72°00' W 080°36'0 0.0 010 / 41003.4 6.2 5.1
2018-Aug-08 23:00N 72°00' W 080°36'0 0.0 070 / 31003.4 6.5 5.1
2018-Aug-08 22:00N 72°00' W 080°36'0 0.0 1003.3 6.6 4.8
2018-Aug-08 21:00N 72°00' W 080°36'0 0.0 030 / 11003.1 6.2 5.0
2018-Aug-08 20:00N 72°00' W 080°36'0 0.0 050 / 21003.1 6.0 4.8
2018-Aug-08 19:00N 72°00' W 080°36'0 0.0 010 / 21003.1 6.2 5.2
2018-Aug-08 18:00N 72°00' W 080°36'0 0.0 080 / 11002.9 6.2 5.1
2018-Aug-08 17:00N 72°00' W 080°36'0 0.0 060 / 11002.8 5.9 4.7
2018-Aug-08 16:00N 72°00' W 080°36'0 0.0 060 / 21002.7 5.4 4.3
2018-Aug-08 15:00N 72°00' W 080°36'0 0.0 050 / 31002.8 5.5 4.1
2018-Aug-08 14:00N 72°00' W 080°36'0 0.0 050 / 21002.8 5.6 3.7
2018-Aug-08 13:00N 72°00' W 080°36'0 0.0 050 / 41002.7 5.1 3.9
2018-Aug-08 12:00N 72°00' W 080°36'0 0.0 030 / 51002.9 5.0 3.7
2018-Aug-08 11:00N 72°00' W 080°36'0 0.0 030 / 61002.8 4.9 3.5
2018-Aug-08 10:00N 72°00' W 080°36'0 0.0 030 / 81002.6 5.0 3.5
2018-Aug-08 09:00N 72°00' W 080°36'0 0.0 030 / 71002.7 5.0 3.5
2018-Aug-08 08:00N 72°00' W 080°36'0 0.0 040 / 81002.6 5.2 3.7
2018-Aug-08 07:00N 72°00' W 080°36'0 0.0 030 / 61002.6 5.4 3.6
2018-Aug-08 06:00N 72°00' W 080°36'0 0.0 040 / 81002.5 5.5 3.8
2018-Aug-08 05:00N 72°00' W 080°36'0 0.0 040 / 51002.6 6.2 4.0
2018-Aug-08 04:00N 72°00' W 080°36'0 0.0 220 / 31002.5 8.6 4.2
2018-Aug-08 03:00N 72°00' W 080°36'0 0.0 210 / 21002.4 7.7 4.2
2018-Aug-08 02:00N 72°00' W 080°36'0 0.0 060 / 21002.5 6.9 3.8
2018-Aug-08 01:00N 72°00' W 080°36'0 0.0 1002.7 7.5 4.9
2018-Aug-08 00:00N 72°00' W 080°36'0 0.0 1002.7 8.1 4.1
2018-Aug-07 23:00N 72°00' W 080°36'0 0.0 140 / 11002.7 7.4 5.2
2018-Aug-07 22:00N 72°00' W 080°36'0 0.0 230 / 11002.9 8.2 4.9
2018-Aug-07 21:00N 72°00' W 080°36'0 0.0 030 / 21003.0 7.0 4.3
2018-Aug-07 20:00N 72°00' W 080°36'0 0.0 060 / 21003.2 6.6 4.7
2018-Aug-07 19:00N 72°00' W 080°36'0 0.0 030 / 61003.2 6.2 4.6
2018-Aug-07 18:00N 72°00' W 080°36'0 0.0 030 / 61003.4 6.1 4.5
2018-Aug-07 17:00N 72°00' W 080°36'0 0.0 320 / 41003.3 6.3 4.0
2018-Aug-07 16:00N 72°00' W 080°36'0 0.0 220 / 61003.3 6.8 4.1
2018-Aug-07 15:00N 72°00' W 080°36'0 0.0 250 / 71003.3 6.3 4.4
2018-Aug-07 14:00N 72°00' W 080°36'0 0.0 220 / 61003.3 6.9 3.3
2018-Aug-07 13:00N 72°00' W 080°36'0 0.0 210 / 101003.3 6.6 3.2
2018-Aug-07 12:00N 72°00' W 080°36'0 0.0 180 / 101003.3 6.3 2.8
2018-Aug-07 11:00N 72°00' W 080°36'0 0.0 200 / 111003.0 6.3 2.8
2018-Aug-07 10:00N 72°00' W 080°36'0 0.0 180 / 131002.9 6.2 2.8
2018-Aug-07 09:00N 72°00' W 080°36'0 0.0 190 / 111002.5 6.3 3.0
2018-Aug-07 08:00N 72°00' W 080°36'0 0.0 190 / 111002.2 6.2 3.3
2018-Aug-07 07:00N 72°00' W 080°36'0 0.0 190 / 131001.6 6.6 3.3 5.0
2018-Aug-07 06:00N 72°00' W 080°36'0 0.0 190 / 141001.0 6.8 3.7 5.0
2018-Aug-07 05:00N 72°00' W 080°36'6 6.3 200 / 20999.8 7.3 3.7 5.1
2018-Aug-07 04:00N 72°06' W 080°30'6 6.0 210 / 121000.0 7.7 3.8 4.5
2018-Aug-07 03:00N 72°12' W 080°30'6 6.0 210 / 14999.3 7.2 3.0 3.6
2018-Aug-07 02:00N 72°18' W 080°30'7 7.0 230 / 11998.4 5.6 3.0 2.2
2018-Aug-07 01:00N 72°24' W 080°18'6 6.3 220 / 11997.9 4.7 2.2 1.6
2018-Aug-07 00:00N 72°30' W 080°12'8 8.1 190 / 8997.0 3.6 1.4 1.5
2018-Aug-06 23:00N 72°36' W 079°54'7 7.2 190 / 10996.8 4.3 1.2 1.1
2018-Aug-06 22:00N 72°36' W 079°30'1110.8 120 / 6996.7 2.9 1.1 1.6
2018-Aug-06 21:00N 72°42' W 079°00'7 7.1 080 / 3996.1 4.0 1.5 2.3
2018-Aug-06 20:00N 72°42' W 078°36'9 8.9 290 / 1995.4 4.2 2.0 1.3
2018-Aug-06 19:00N 72°42' W 078°06'4 3.6 170 / 3994.7 4.7 1.9 2.3
2018-Aug-06 18:00N 72°42' W 077°54'0 0.0 220 / 4994.0 4.2 2.8 3.2
2018-Aug-06 17:00N 72°42' W 077°54'0 0.0 050 / 1993.3 5.5 3.5 2.9
2018-Aug-06 16:00N 72°42' W 077°54'0 0.0 300 / 3992.8 3.1 2.3 2.8
2018-Aug-06 15:00N 72°42' W 077°54'9 9.3 070 / 4992.3 1.3 1.0 0.3
2018-Aug-06 14:00N 72°48' W 077°30'9 8.9 110 / 10992.2 1.5 1.2 0.1
2018-Aug-06 13:00N 72°48' W 077°00'7 7.1 090 / 9992.2 1.7 1.6 0.6
2018-Aug-06 12:00N 72°48' W 076°36'9 8.9 070 / 7992.4 1.4 1.2 0.6
2018-Aug-06 11:00N 72°48' W 076°06'9 9.3 270 / 2992.4 1.4 1.2 1.4
2018-Aug-06 10:00N 72°42' W 075°42'7 7.1 130 / 1992.6 1.1 0.9 0.9
2018-Aug-06 09:00N 72°42' W 075°18'7 7.1 150 / 3993.2 1.5 1.3 2.0
2018-Aug-06 08:00N 72°42' W 074°54'9 8.9 110 / 4993.2 1.3 1.1 1.4
2018-Aug-06 07:00N 72°42' W 074°24'7 7.1 120 / 5993.7 1.6 1.3 1.4
2018-Aug-06 06:00N 72°42' W 074°00'7 7.1 130 / 11994.0 1.5 1.2 1.4
2018-Aug-06 05:00N 72°42' W 073°36'9 9.3 130 / 11994.7 1.9 1.3 2.0
2018-Aug-06 04:00N 72°36' W 073°12'7 7.2 130 / 12995.1 2.1 1.3 1.7
2018-Aug-06 03:00N 72°36' W 072°48'7 7.2 130 / 17995.6 2.3 1.4 2.0
2018-Aug-06 02:00N 72°36' W 072°24'9 9.0 130 / 20996.3 2.5 1.5 1.7
2018-Aug-06 01:00N 72°36' W 071°54'7 7.2 130 / 20996.9 2.9 1.8 1.8
2018-Aug-06 00:00N 72°36' W 071°30'9 9.4 130 / 23997.5 3.0 2.0 3.9
2018-Aug-05 23:00N 72°30' W 071°06'5 5.4 130 / 24998.3 3.0 1.8 3.8
2018-Aug-05 22:00N 72°30' W 070°48'7 7.2 130 / 25998.9 3.0 1.9 3.3
2018-Aug-05 21:00N 72°30' W 070°24'1110.9 130 / 27999.9 3.0 1.8 3.9
2018-Aug-05 20:00N 72°24' W 069°54'5 5.4 130 / 251001.4 3.0 2.0 3.8
2018-Aug-05 19:00N 72°24' W 069°36'7 7.3 130 / 231002.6 2.8 1.8 3.9
2018-Aug-05 18:00N 72°24' W 069°12'7 7.3 130 / 261003.6 2.5 1.7 3.7
2018-Aug-05 17:00N 72°24' W 068°48'7 7.0 130 / 251004.6 2.6 1.9 4.3
2018-Aug-05 16:00N 72°18' W 068°36'7 7.3 140 / 251005.3 2.1 1.7 4.0
2018-Aug-05 15:00N 72°18' W 068°12'7 7.3 130 / 241006.4 2.3 1.9 3.9
2018-Aug-05 14:00N 72°18' W 067°48'9 9.5 130 / 231007.4 3.1 1.7 4.0
2018-Aug-05 13:00N 72°12' W 067°24'7 7.3 130 / 171008.3 3.1 1.0 2.4
2018-Aug-05 12:00N 72°12' W 067°00'6 5.5 140 / 181008.8 3.3 1.0 2.5
2018-Aug-05 11:00N 72°12' W 066°42'9 9.5 150 / 161009.2 2.9 1.1 2.2
2018-Aug-05 10:00N 72°06' W 066°18'7 7.4 150 / 161009.4 2.8 1.2 2.3
2018-Aug-05 09:00N 72°06' W 065°54'7 7.4 150 / 151009.6 2.9 1.4 2.6
2018-Aug-05 08:00N 72°06' W 065°30'10 9.5 150 / 151009.8 2.7 1.4 3.0
2018-Aug-05 07:00N 72°00' W 065°06'10 9.6 150 / 141010.0 2.7 1.4 2.7
2018-Aug-05 06:00N 71°54' W 064°42'7 7.5 160 / 131010.1 2.6 1.5 3.0
2018-Aug-05 05:00N 71°54' W 064°18'7 7.5 160 / 131010.2 1.5 1.1 2.6
2018-Aug-05 04:00N 71°54' W 063°54'7 7.5 160 / 131010.3 0.4 0.3 2.5
2018-Aug-05 03:00N 71°54' W 063°30'10 9.6 160 / 121009.8 -0.4-0.6 2.2
2018-Aug-05 02:00N 71°48' W 063°06'   180 / 91009.5 -0.8-1.0 1.1

Dump ship's entire track history